createdAt,value
2018-11-20T00:01:44.872Z,20.53
2018-11-20T00:04:34.240Z,18.63
2018-11-20T00:07:23.495Z,21.13
2018-11-20T00:10:12.767Z,19.83
2018-11-20T00:12:59.402Z,25.03
2018-11-20T00:15:48.761Z,16.67
2018-11-20T00:18:56.869Z,23.00
2018-11-20T00:21:36.034Z,20.10
2018-11-20T00:24:25.523Z,14.43
2018-11-20T00:27:14.798Z,15.33
2018-11-20T00:30:04.077Z,17.07
2018-11-20T00:32:53.340Z,17.60
2018-11-20T00:35:42.582Z,16.00
2018-11-20T00:38:31.875Z,15.77
2018-11-20T00:41:21.128Z,17.30
2018-11-20T00:44:10.427Z,17.60
2018-11-20T00:46:59.768Z,19.00
2018-11-20T00:49:49.081Z,18.17
2018-11-20T00:52:38.323Z,18.37
2018-11-20T00:56:05.472Z,17.87
2018-11-20T00:58:54.802Z,16.60
2018-11-20T01:01:44.088Z,20.37
2018-11-20T01:04:33.338Z,23.07
2018-11-20T01:07:22.709Z,21.07
2018-11-20T01:10:11.939Z,21.57
2018-11-20T01:13:01.242Z,20.07
2018-11-20T01:15:50.476Z,22.37
2018-11-20T01:18:39.756Z,23.10
2018-11-20T01:21:28.999Z,23.53
2018-11-20T01:24:09.536Z,23.40
2018-11-20T01:26:58.879Z,24.27
2018-11-20T01:29:48.159Z,20.20
2018-11-20T01:32:37.404Z,22.77
2018-11-20T01:35:26.691Z,21.10
2018-11-20T01:46:53.427Z,27.73
2018-11-20T01:49:35.292Z,27.63
2018-11-20T01:52:24.670Z,23.63
2018-11-20T01:55:13.973Z,25.17
2018-11-20T01:58:03.212Z,25.00
2018-11-20T02:03:34.585Z,23.10
2018-11-20T02:06:23.842Z,24.27
2018-11-20T02:09:13.183Z,27.80
2018-11-20T02:17:28.980Z,24.73
2018-11-20T02:20:18.236Z,27.13
2018-11-20T02:25:49.451Z,25.23
2018-11-20T02:28:31.592Z,26.90
2018-11-20T02:31:20.833Z,21.20
2018-11-20T02:34:29.374Z,27.33
2018-11-20T02:37:18.620Z,30.20
2018-11-20T02:40:08.328Z,25.23
2018-11-20T02:42:44.175Z,28.10
2018-11-20T02:45:33.461Z,33.50
2018-11-20T02:48:22.724Z,28.53
2018-11-20T02:53:53.468Z,27.77
2018-11-20T02:56:42.721Z,31.43
2018-11-20T02:59:32.081Z,32.90
2018-11-20T03:02:21.321Z,32.00
2018-11-20T03:05:10.603Z,27.13
2018-11-20T03:07:59.987Z,36.00
2018-11-20T03:10:49.270Z,26.23
2018-11-20T03:13:38.643Z,32.27
2018-11-20T03:16:27.919Z,28.53
2018-11-20T03:19:17.165Z,27.53
2018-11-20T03:22:06.440Z,28.57
2018-11-20T03:24:55.681Z,28.07
2018-11-20T03:27:44.955Z,30.67
2018-11-20T03:31:11.999Z,32.40
2018-11-20T03:34:02.987Z,27.63
2018-11-20T03:36:52.236Z,29.37
2018-11-20T03:39:41.512Z,29.70
2018-11-20T03:42:30.857Z,22.97
2018-11-20T03:45:20.132Z,30.47
2018-11-20T03:48:09.503Z,21.57
2018-11-20T03:50:58.868Z,25.03
2018-11-20T03:53:48.213Z,26.57
2018-11-20T03:56:37.527Z,19.97
2018-11-20T03:59:26.793Z,29.10
2018-11-20T04:02:16.199Z,27.67
2018-11-20T04:05:05.585Z,30.77
2018-11-20T04:07:55.435Z,29.93
2018-11-20T04:10:44.674Z,27.63
2018-11-20T04:13:33.958Z,32.23
2018-11-20T04:16:23.210Z,30.27
2018-11-20T04:19:12.578Z,26.80
2018-11-20T04:22:01.913Z,28.83
2018-11-20T04:24:51.219Z,29.80
2018-11-20T04:27:40.461Z,29.07
2018-11-20T04:31:07.531Z,32.77
2018-11-20T04:33:58.147Z,25.33
2018-11-20T04:36:50.522Z,32.17
2018-11-20T04:39:39.806Z,35.70
2018-11-20T04:42:29.219Z,35.93
2018-11-20T04:45:18.583Z,34.70
2018-11-20T04:48:07.988Z,33.17
2018-11-20T04:50:57.230Z,28.43
2018-11-20T04:53:46.608Z,27.83
2018-11-20T04:56:35.951Z,27.77
2018-11-20T04:59:17.625Z,30.17
2018-11-20T05:02:06.870Z,28.90
2018-11-20T05:04:56.155Z,25.50
2018-11-20T05:07:45.412Z,36.23
2018-11-20T05:10:34.691Z,27.97
2018-11-20T05:13:24.223Z,26.77
2018-11-20T05:16:13.535Z,28.10
2018-11-20T05:19:02.775Z,27.63
2018-11-20T05:21:52.043Z,28.33
2018-11-20T05:24:41.282Z,23.57
2018-11-20T05:27:30.551Z,28.37
2018-11-20T05:30:19.893Z,29.47
2018-11-20T05:33:09.161Z,27.73
2018-11-20T05:35:58.409Z,28.13
2018-11-20T05:38:47.685Z,21.03
2018-11-20T05:41:36.935Z,27.73
2018-11-20T05:44:26.243Z,28.70
2018-11-20T05:47:15.505Z,30.90
2018-11-20T05:50:04.795Z,29.30
2018-11-20T05:52:54.141Z,34.67
2018-11-20T05:55:43.535Z,43.87
2018-11-20T05:58:32.883Z,37.73
2018-11-20T06:01:22.374Z,33.10
2018-11-20T06:04:11.648Z,34.67
2018-11-20T06:07:00.926Z,27.40
2018-11-20T06:09:50.268Z,35.23
2018-11-20T06:15:21.130Z,29.83
2018-11-20T06:18:10.438Z,31.93
2018-11-20T06:20:59.777Z,35.47
2018-11-20T06:23:49.064Z,29.07
2018-11-20T06:26:38.316Z,29.50
2018-11-20T06:29:27.609Z,29.57
2018-11-20T06:32:16.866Z,25.87
2018-11-20T06:37:48.322Z,30.27
2018-11-20T06:40:37.572Z,32.57
2018-11-20T06:43:26.856Z,26.47
2018-11-20T06:46:16.314Z,28.47
2018-11-20T06:49:05.595Z,30.83
2018-11-20T06:51:54.850Z,25.60
2018-11-20T06:57:29.426Z,27.17
2018-11-20T07:00:18.555Z,27.27
2018-11-20T07:03:07.799Z,26.43
2018-11-20T07:05:57.165Z,23.80
2018-11-20T07:08:46.518Z,27.77
2018-11-20T07:11:35.719Z,24.77
2018-11-20T07:14:45.483Z,26.37
2018-11-20T07:17:38.038Z,24.10
2018-11-20T07:20:27.554Z,22.40
2018-11-20T07:23:16.827Z,22.87
2018-11-20T07:26:06.084Z,26.27
2018-11-20T07:28:55.351Z,20.13
2018-11-20T07:34:59.709Z,26.53
2018-11-20T07:37:48.778Z,24.13
2018-11-20T07:40:38.141Z,26.57
2018-11-20T07:43:27.440Z,26.80
2018-11-20T07:46:06.916Z,28.83
2018-11-20T07:48:56.158Z,28.87
2018-11-20T07:54:27.386Z,28.23
2018-11-20T07:57:16.663Z,32.97
2018-11-20T08:00:05.960Z,30.27
2018-11-20T08:02:55.228Z,30.70
2018-11-20T08:06:03.496Z,33.43
2018-11-20T08:08:52.874Z,33.20
2018-11-20T08:11:42.063Z,31.10
2018-11-20T08:14:31.439Z,31.90
2018-11-20T08:17:10.887Z,32.60
2018-11-20T08:20:00.175Z,33.30
2018-11-20T08:22:49.416Z,31.53
2018-11-20T08:28:20.730Z,29.67
2018-11-20T08:31:10.091Z,30.43
2018-11-20T08:33:59.273Z,29.10
2018-11-20T08:36:42.442Z,31.17
2018-11-20T08:39:31.150Z,29.47
2018-11-20T08:42:20.497Z,27.27
2018-11-20T08:48:24.187Z,29.40
2018-11-20T08:51:13.359Z,33.87
2018-11-20T08:54:02.649Z,33.87
2018-11-20T08:56:51.987Z,33.27
2018-11-20T08:59:41.273Z,34.00
2018-11-20T09:02:30.553Z,28.90
2018-11-20T09:05:20.126Z,28.37
2018-11-20T09:08:09.451Z,23.73
2018-11-20T09:10:58.733Z,31.93
2018-11-20T09:13:48.090Z,30.63
2018-11-20T09:16:37.389Z,28.67
2018-11-20T09:19:26.766Z,30.97
2018-11-20T09:22:16.595Z,31.10
2018-11-20T09:25:05.830Z,25.50
2018-11-20T09:27:55.148Z,26.83
2018-11-20T09:30:44.453Z,27.63
2018-11-20T09:33:33.749Z,26.33
2018-11-20T09:36:23.186Z,28.03
2018-11-20T09:39:12.476Z,28.00
2018-11-20T09:41:50.594Z,29.33
2018-11-20T09:45:14.706Z,29.30
2018-11-20T09:47:55.001Z,26.83
2018-11-20T09:50:44.278Z,23.83
2018-11-20T09:53:33.530Z,28.30
2018-11-20T09:56:23.174Z,26.30
2018-11-20T09:59:05.214Z,30.77
2018-11-20T10:01:54.492Z,24.73
2018-11-20T10:04:43.814Z,24.63
2018-11-20T10:07:33.217Z,24.33
2018-11-20T10:10:22.559Z,27.50
2018-11-20T10:13:11.878Z,27.90
2018-11-20T10:16:01.171Z,25.53
2018-11-20T10:18:50.437Z,24.87
2018-11-20T10:21:39.799Z,26.33
2018-11-20T10:24:28.973Z,29.40
2018-11-20T10:27:09.712Z,28.00
2018-11-20T10:29:59.133Z,30.03
2018-11-20T10:32:48.368Z,33.73
2018-11-20T10:35:37.759Z,29.30
2018-11-20T10:38:26.907Z,29.33
2018-11-20T10:43:58.243Z,29.70
2018-11-20T10:46:47.608Z,29.60
2018-11-20T10:49:36.804Z,29.07
2018-11-20T10:52:26.328Z,27.70
2018-11-20T10:55:15.500Z,30.27
2018-11-20T10:58:04.743Z,22.53
2018-11-20T11:00:54.036Z,30.50
2018-11-20T11:03:43.362Z,30.50
2018-11-20T11:06:33.454Z,32.17
2018-11-20T11:09:22.568Z,29.53
2018-11-20T11:12:12.039Z,31.43
2018-11-20T11:15:01.399Z,25.13
2018-11-20T11:17:50.688Z,26.23
2018-11-20T11:20:33.723Z,27.20
2018-11-20T11:23:12.325Z,29.97
2018-11-20T11:26:01.651Z,28.90
2018-11-20T11:28:51.436Z,29.10
2018-11-20T11:31:40.270Z,43.13
2018-11-20T11:34:29.555Z,38.03
2018-11-20T11:37:18.804Z,37.57
2018-11-20T11:40:08.124Z,60.90
2018-11-20T11:42:57.452Z,49.10
2018-11-20T11:45:46.849Z,76.83
2018-11-20T11:48:36.101Z,121.57
2018-11-20T11:51:25.622Z,48.70
2018-11-20T11:57:29.147Z,60.97
2018-11-20T12:00:18.494Z,49.83
2018-11-20T12:05:49.416Z,47.83
2018-11-20T12:08:38.656Z,41.07
2018-11-20T12:11:28.096Z,49.63
2018-11-20T12:14:17.336Z,40.20
2018-11-20T12:17:06.611Z,48.63
2018-11-20T12:19:55.904Z,48.90
2018-11-20T12:22:45.296Z,55.83
2018-11-20T12:25:34.534Z,45.60
2018-11-20T12:31:05.267Z,63.67
2018-11-20T12:33:54.860Z,34.37
2018-11-20T12:36:44.141Z,52.67
2018-11-20T12:42:48.308Z,36.50
2018-11-20T12:45:37.705Z,32.23
2018-11-20T12:48:27.083Z,28.60
2018-11-20T12:51:16.338Z,33.50
2018-11-20T12:54:06.446Z,28.93
2018-11-20T12:56:55.690Z,33.70
2018-11-20T12:59:45.114Z,29.90
2018-11-20T13:02:34.366Z,34.77
2018-11-20T13:05:24.335Z,33.33
2018-11-20T13:08:13.656Z,27.03
2018-11-20T13:11:02.930Z,31.90
2018-11-20T13:14:03.955Z,32.63
2018-11-20T13:16:53.258Z,39.80
2018-11-20T13:19:42.604Z,29.30
2018-11-20T13:22:33.557Z,40.30
2018-11-20T13:25:21.124Z,37.93
2018-11-20T13:28:10.421Z,38.00
2018-11-20T13:30:59.659Z,33.03
2018-11-20T13:33:49.715Z,36.77
2018-11-20T13:36:38.286Z,29.50
2018-11-20T13:39:47.858Z,39.60
2018-11-20T13:42:39.732Z,40.07
2018-11-20T13:45:29.028Z,41.60
2018-11-20T13:48:18.268Z,34.50
2018-11-20T13:51:07.555Z,39.80
2018-11-20T13:53:56.799Z,31.23
2018-11-20T13:56:46.076Z,54.20
2018-11-20T13:59:35.320Z,40.40
2018-11-20T14:02:24.759Z,35.73
2018-11-20T14:05:13.996Z,36.00
2018-11-20T14:08:04.620Z,37.87
2018-11-20T14:10:53.930Z,40.77
2018-11-20T14:13:43.305Z,46.53
2018-11-20T14:16:32.539Z,39.73
2018-11-20T14:19:21.829Z,37.43
2018-11-20T14:22:11.125Z,33.43
2018-11-20T14:25:01.565Z,43.70
2018-11-20T14:27:50.800Z,35.23
2018-11-20T14:30:40.180Z,34.70
2018-11-20T14:33:29.869Z,36.53
2018-11-20T14:36:19.319Z,36.67
2018-11-20T14:39:08.555Z,34.43
2018-11-20T14:41:57.933Z,54.67
2018-11-20T14:44:47.224Z,44.27
2018-11-20T14:47:36.508Z,36.57
2018-11-20T14:50:26.929Z,42.93
2018-11-20T14:53:16.325Z,37.10
2018-11-20T14:56:05.608Z,34.97
2018-11-20T14:58:54.867Z,32.97
2018-11-20T15:01:44.116Z,36.00
2018-11-20T15:04:33.429Z,39.17
2018-11-20T15:07:22.629Z,37.67
2018-11-20T15:10:11.966Z,34.67
2018-11-20T15:13:01.214Z,34.40
2018-11-20T15:15:50.511Z,38.07
2018-11-20T15:18:44.048Z,35.10
2018-11-20T15:21:29.040Z,29.37
2018-11-20T15:24:18.369Z,32.20
2018-11-20T15:27:07.788Z,34.73
2018-11-20T15:29:57.031Z,35.43
2018-11-20T15:32:46.315Z,32.60
2018-11-20T15:35:35.554Z,36.10
2018-11-20T15:41:38.936Z,36.87
2018-11-20T15:44:28.226Z,38.63
2018-11-20T15:47:17.469Z,39.20
2018-11-20T15:50:06.775Z,35.30
2018-11-20T15:52:47.763Z,38.63
2018-11-20T15:55:37.048Z,34.33
2018-11-20T15:58:26.293Z,37.03
2018-11-20T16:03:56.973Z,38.77
2018-11-20T16:06:46.240Z,36.70
2018-11-20T16:12:17.656Z,37.57
2018-11-20T16:15:06.909Z,39.20
2018-11-20T16:17:57.171Z,36.60
2018-11-20T16:20:46.408Z,39.50
2018-11-20T16:23:35.784Z,41.13
2018-11-20T16:26:25.096Z,38.03
2018-11-20T16:29:14.464Z,40.83
2018-11-20T16:32:03.713Z,42.37
2018-11-20T16:34:53.018Z,32.33
2018-11-20T16:37:42.257Z,30.60
2018-11-20T16:40:31.542Z,34.53
2018-11-20T16:43:20.788Z,30.30
2018-11-20T16:46:21.264Z,37.83
2018-11-20T16:49:10.507Z,34.30
2018-11-20T16:51:59.792Z,32.13
2018-11-20T16:54:49.065Z,31.47
2018-11-20T16:57:38.377Z,32.20
2018-11-20T17:00:28.688Z,27.73
2018-11-20T17:03:18.032Z,28.80
2018-11-20T17:06:07.279Z,28.83
2018-11-20T17:12:32.601Z,27.87
2018-11-20T17:15:21.888Z,24.80
2018-11-20T17:18:03.116Z,27.73
2018-11-20T17:20:52.442Z,20.17
2018-11-20T17:23:41.688Z,30.90
2018-11-20T17:26:31.009Z,22.53
2018-11-20T17:29:20.255Z,26.83
2018-11-20T17:32:09.648Z,26.17
2018-11-20T17:34:58.904Z,25.53
2018-11-20T17:37:48.218Z,23.90
2018-11-20T17:40:37.797Z,29.83
2018-11-20T17:43:27.417Z,26.43
2018-11-20T17:46:16.763Z,26.90
2018-11-20T17:49:06.207Z,25.07
2018-11-20T17:52:02.866Z,35.60
2018-11-20T17:55:11.018Z,24.50
2018-11-20T17:57:57.235Z,23.80
2018-11-20T18:00:44.837Z,27.57
2018-11-20T18:03:34.086Z,26.00
2018-11-20T18:06:23.380Z,36.80
2018-11-20T18:09:12.756Z,33.47
2018-11-20T18:12:02.271Z,41.17
2018-11-20T18:14:51.638Z,50.80
2018-11-20T18:17:41.355Z,60.27
2018-11-20T18:23:44.793Z,35.97
2018-11-20T18:26:34.045Z,45.77
2018-11-20T18:29:23.343Z,41.57
2018-11-20T18:32:12.577Z,46.17
2018-11-20T18:35:01.857Z,35.13
2018-11-20T18:37:57.068Z,39.67
2018-11-20T18:40:58.584Z,40.90
2018-11-20T18:43:58.318Z,39.60
2018-11-20T18:46:46.042Z,32.83
2018-11-20T18:49:33.194Z,41.80
2018-11-20T18:52:26.756Z,41.30
2018-11-20T18:55:19.059Z,44.57
2018-11-20T18:58:20.275Z,43.90
2018-11-20T19:01:07.963Z,43.27
2018-11-20T19:04:09.262Z,41.90
2018-11-20T19:07:08.383Z,47.90
2018-11-20T19:10:09.419Z,41.33
2018-11-20T19:13:16.517Z,50.33
2018-11-20T19:16:11.595Z,49.33
2018-11-20T19:19:04.637Z,48.73
2018-11-20T19:22:00.888Z,48.93
2018-11-20T19:24:48.900Z,57.10
2018-11-20T19:27:53.464Z,50.80
2018-11-20T19:30:45.656Z,39.87
2018-11-20T19:33:33.703Z,41.87
2018-11-20T19:36:21.588Z,41.53
2018-11-20T19:39:17.073Z,51.20
2018-11-20T19:42:06.318Z,48.20
2018-11-20T19:44:54.227Z,44.93
2018-11-20T19:47:41.848Z,50.63
2018-11-20T19:50:37.451Z,49.13
2018-11-20T19:53:29.553Z,48.40
2018-11-20T19:56:30.888Z,43.73
2018-11-20T19:59:18.406Z,44.33
2018-11-20T20:02:16.715Z,48.33
2018-11-20T20:05:04.322Z,42.47
2018-11-20T20:08:05.693Z,38.10
2018-11-20T20:11:00.697Z,37.20
2018-11-20T20:13:50.037Z,41.03
2018-11-20T20:16:38.302Z,39.90
2018-11-20T20:19:27.779Z,45.17
2018-11-20T20:22:15.733Z,39.07
2018-11-20T20:25:03.392Z,41.23
2018-11-20T20:27:51.010Z,45.23
2018-11-20T20:30:38.641Z,40.87
2018-11-20T20:33:26.628Z,50.60
2018-11-20T20:36:15.978Z,45.97
2018-11-20T20:39:03.896Z,49.20
2018-11-20T20:42:05.551Z,53.17
2018-11-20T20:44:53.620Z,54.17
2018-11-20T20:47:44.557Z,60.43
2018-11-20T20:50:32.199Z,58.93
2018-11-20T20:53:27.446Z,61.10
2018-11-20T20:56:15.250Z,62.67
2018-11-20T20:59:00.389Z,60.23
2018-11-20T21:01:47.944Z,57.37
2018-11-20T21:04:46.718Z,59.83
2018-11-20T21:07:43.334Z,63.60
2018-11-20T21:10:31.576Z,58.33
2018-11-20T21:13:19.037Z,64.83
2018-11-20T21:16:08.366Z,63.17
2018-11-20T21:19:12.761Z,95.30
2018-11-20T21:22:00.891Z,79.07
2018-11-20T21:25:01.906Z,68.83
2018-11-20T21:27:52.641Z,69.10
2018-11-20T21:30:50.870Z,74.60
2018-11-20T21:33:38.837Z,69.07
2018-11-20T21:36:28.208Z,71.10
2018-11-20T21:39:23.261Z,74.50
2018-11-20T21:42:09.492Z,81.03
2018-11-20T21:45:04.676Z,77.20
2018-11-20T21:48:09.137Z,71.73
2018-11-20T21:50:56.676Z,69.17
2018-11-20T21:53:48.270Z,52.87
2018-11-20T21:56:36.117Z,74.93
2018-11-20T21:59:40.153Z,71.63
2018-11-20T22:02:23.294Z,72.17
2018-11-20T22:05:05.532Z,70.80
2018-11-20T22:07:46.203Z,69.73
2018-11-20T22:10:33.939Z,61.97
2018-11-20T22:13:21.519Z,79.97
2018-11-20T22:16:22.739Z,56.53
2018-11-20T22:19:24.104Z,67.07
2018-11-20T22:22:25.133Z,79.10
2018-11-20T22:25:13.008Z,73.03
2018-11-20T22:28:00.754Z,78.83
2018-11-20T22:30:39.628Z,76.37
2018-11-20T22:33:32.099Z,73.07
2018-11-20T22:36:27.382Z,95.90
2018-11-20T22:39:15.660Z,85.90
2018-11-20T22:42:03.297Z,84.33
2018-11-20T22:45:10.518Z,68.70
2018-11-20T22:47:58.197Z,83.20
2018-11-20T22:50:47.565Z,68.63
2018-11-20T22:53:39.822Z,76.53
2018-11-20T22:56:38.199Z,73.20
2018-11-20T22:59:18.279Z,69.87
2018-11-20T23:02:05.831Z,75.93
2018-11-20T23:05:08.156Z,66.67
2018-11-20T23:07:52.379Z,74.20
2018-11-20T23:10:24.144Z,75.27
2018-11-20T23:12:55.006Z,77.03
2018-11-20T23:15:25.646Z,74.83
2018-11-20T23:17:56.341Z,76.10
2018-11-20T23:20:26.986Z,70.87
2018-11-20T23:22:57.643Z,73.87
2018-11-20T23:25:28.349Z,71.87
2018-11-20T23:27:59.006Z,76.27
2018-11-20T23:30:29.655Z,72.70
2018-11-20T23:33:00.337Z,68.33
2018-11-20T23:35:30.972Z,64.73
2018-11-20T23:38:01.620Z,71.87
2018-11-20T23:40:32.311Z,62.77
2018-11-20T23:43:02.957Z,63.17
2018-11-20T23:45:33.595Z,61.23
2018-11-20T23:48:04.288Z,61.80
2018-11-20T23:50:34.934Z,64.63
2018-11-20T23:53:05.572Z,70.67
2018-11-20T23:55:36.361Z,62.97
2018-11-20T23:58:07.022Z,56.20
